Wiederkehr Village, Arkansas
Current Conditions -  °F | °C
As of 12:53 PM on Friday 28 Nov 2014 (Local Time) from KFSM Reporting Station
Clear Clear  
Wind Chill: 62°   Ceiling: Unl
Heat Index: 62°   Visibility: 10mi
Dew Point: 34°   Wind: 15mph
Humidity: 35%   Direction: 200°SSW
Pressure: 30.09"   Gusts: NA
Location:  35.3734°N, 93.8592°W
Report Text: KFSM 281853Z 20013KT 10SM CLR 17/01 A3009 RMK AO2 WSHFT 1808 SLP191 T01670011
Loading
Personal Weather Stations






























Interactive Weather Map New forecast layout! Learn more

10-Day Weather Forecast

Advertisements
Track Severe Weather on mobile